Time;durP1;ratioP1;P1;durP2;ratioP2;P2;SDS_P1;SDS_P2;PMS_P1;PMS_P2;Temp;Humidity;BMP_temperature;BMP_pressure;BME280_temperature;BME280_humidity;BME280_pressure;Samples;Min_cycle;Max_cycle;Signal;HPM_P1;HPM_P2
2023/06/10 00:00:34;;;;;;;12.32;4.40;;;;;;;20.37;56.21;100124.97;5060135;28;20588;-85
2023/06/10 00:02:59;;;;;;;10.25;5.75;;;;;;;20.33;58.17;100132.75;5052744;28;20025;-84
2023/06/10 00:05:24;;;;;;;21.80;9.25;;;;;;;20.35;60.96;100133.38;5051621;28;20032;-83
2023/06/10 00:07:50;;;;;;;17.10;7.25;;;;;;;20.37;62.38;100136.75;5051674;28;20107;-84
2023/06/10 00:10:16;;;;;;;39.92;10.82;;;;;;;20.26;62.73;100125.53;5053448;28;20400;-84
2023/06/10 00:12:41;;;;;;;17.67;6.50;;;;;;;20.24;63.24;100125.72;5054161;28;21050;-84
2023/06/10 00:15:08;;;;;;;12.18;6.25;;;;;;;20.25;62.87;100143.78;5053691;28;20056;-87
2023/06/10 00:17:33;;;;;;;21.38;6.93;;;;;;;20.10;62.93;100132.13;5065748;28;20100;-83
2023/06/10 00:19:59;;;;;;;21.08;6.25;;;;;;;20.08;62.99;100128.75;5069367;28;20025;-82
2023/06/10 00:22:29;;;;;;;18.63;5.93;;;;;;;20.05;63.37;100138.19;5056247;28;20104;-85
2023/06/10 00:24:55;;;;;;;13.80;5.90;;;;;;;20.04;63.42;100135.63;5053287;28;20025;-83
2023/06/10 00:27:21;;;;;;;13.70;5.28;;;;;;;19.99;63.50;100124.47;5054684;28;20141;-83
2023/06/10 00:29:46;;;;;;;8.80;5.20;;;;;;;20.00;63.15;100126.16;5052166;28;20120;-85
2023/06/10 00:32:12;;;;;;;17.95;5.03;;;;;;;19.98;62.87;100128.25;5051432;28;20033;-83
2023/06/10 00:34:37;;;;;;;11.32;5.03;;;;;;;20.04;62.33;100139.22;5051865;28;20037;-85
2023/06/10 00:37:03;;;;;;;11.27;4.55;;;;;;;19.95;61.55;100117.72;5051126;28;20435;-84
2023/06/10 00:39:28;;;;;;;14.75;4.88;;;;;;;20.00;59.59;100128.88;5050294;28;20124;-84
2023/06/10 00:41:54;;;;;;;18.50;4.63;;;;;;;19.92;58.12;100124.41;5051073;28;20691;-84
2023/06/10 00:44:19;;;;;;;7.30;3.65;;;;;;;19.89;56.91;100123.97;5051135;28;20059;-83
2023/06/10 00:46:45;;;;;;;17.10;3.90;;;;;;;19.88;57.03;100122.25;5050857;28;20112;-83
2023/06/10 00:49:11;;;;;;;11.07;3.97;;;;;;;19.78;56.67;100121.78;5050772;28;20477;-84
2023/06/10 00:51:36;;;;;;;15.25;4.30;;;;;;;19.84;56.44;100134.63;5050743;28;20408;-84
2023/06/10 00:54:03;;;;;;;9.27;3.75;;;;;;;19.54;55.14;100118.41;5050831;28;20033;-84
2023/06/10 00:56:28;;;;;;;4.55;3.13;;;;;;;19.55;54.90;100117.38;5049997;28;20082;-84
2023/06/10 00:58:54;;;;;;;8.82;3.17;;;;;;;19.58;54.22;100131.66;5050763;28;20060;-84
2023/06/10 01:01:19;;;;;;;6.57;3.30;;;;;;;19.52;54.05;100123.22;5050627;28;20036;-84
2023/06/10 01:03:45;;;;;;;9.95;3.92;;;;;;;19.61;54.06;100133.97;5051180;28;20027;-84
2023/06/10 01:06:33;;;;;;;15.55;4.22;;;;;;;19.54;55.00;100132.03;5051617;28;20405;-83
2023/06/10 01:09:18;;;;;;;15.85;5.50;;;;;;;19.63;56.60;100140.09;5052153;28;20048;-84
2023/06/10 01:11:51;;;;;;;12.15;6.30;;;;;;;19.58;57.41;100129.75;5052781;28;20504;-83
2023/06/10 01:14:17;;;;;;;17.77;6.20;;;;;;;19.64;58.25;100139.03;5064472;28;20446;-83
2023/06/10 01:16:45;;;;;;;15.70;5.03;;;;;;;19.58;58.66;100121.59;5069786;28;20071;-84
2023/06/10 01:19:12;;;;;;;16.38;6.97;;;;;;;19.66;59.17;100131.53;5054736;28;20029;-85
2023/06/10 01:21:39;;;;;;;23.25;8.82;;;;;;;19.62;59.79;100119.31;5049154;28;20583;-85
2023/06/10 01:24:08;;;;;;;19.40;11.88;;;;;;;19.73;60.75;100132.41;5048636;28;20416;-83
2023/06/10 01:26:34;;;;;;;16.00;10.25;;;;;;;19.75;61.38;100127.63;5050777;28;20079;-85
2023/06/10 01:29:24;;;;;;;17.48;12.25;;;;;;;19.67;61.86;100112.22;5049751;28;20029;-84
2023/06/10 01:32:15;;;;;;;26.42;12.23;;;;;;;19.74;62.17;100125.94;5049747;28;20045;-85
2023/06/10 01:34:42;;;;;;;22.13;11.25;;;;;;;19.60;61.99;100103.13;5050794;28;20036;-85
2023/06/10 01:37:10;;;;;;;11.48;7.35;;;;;;;19.71;61.40;100112.69;5050235;28;20456;-83
2023/06/10 01:39:36;;;;;;;17.20;8.30;;;;;;;19.63;60.73;100107.38;5050322;28;20029;-82
2023/06/10 01:42:03;;;;;;;28.67;11.15;;;;;;;19.69;60.84;100117.50;5065825;28;20032;-85
2023/06/10 01:44:28;;;;;;;34.78;10.48;;;;;;;19.64;60.90;100101.69;5049799;28;20381;-85
2023/06/10 01:46:53;;;;;;;25.45;12.98;;;;;;;19.62;62.04;100111.97;5049671;28;20036;-85
2023/06/10 01:49:19;;;;;;;30.35;13.60;;;;;;;19.63;62.81;100112.81;5049061;28;20408;-84
2023/06/10 01:51:44;;;;;;;37.85;13.95;;;;;;;19.58;63.32;100115.28;5050189;28;20549;-84
2023/06/10 01:54:10;;;;;;;36.50;14.45;;;;;;;19.53;63.52;100103.09;5049824;28;20451;-84
2023/06/10 01:56:35;;;;;;;26.95;13.65;;;;;;;19.46;63.59;100095.88;5049988;28;20040;-84
2023/06/10 01:59:01;;;;;;;28.52;13.98;;;;;;;19.44;63.97;100109.72;5049883;28;20020;-83
2023/06/10 02:01:26;;;;;;;23.88;13.15;;;;;;;19.51;64.08;100110.59;5049745;28;20021;-84
2023/06/10 02:03:52;;;;;;;25.80;13.50;;;;;;;19.46;63.85;100110.34;5049482;28;20108;-83
2023/06/10 02:06:18;;;;;;;47.53;20.48;;;;;;;19.57;64.18;100116.34;5051292;28;20032;-84
2023/06/10 02:08:43;;;;;;;52.20;25.55;;;;;;;19.62;65.06;100111.13;5050930;28;20123;-85
2023/06/10 02:11:08;;;;;;;50.15;30.77;;;;;;;19.52;65.82;100100.53;5068065;28;20025;-87
2023/06/10 02:13:34;;;;;;;63.30;31.90;;;;;;;19.52;66.25;100112.31;5068138;28;20107;-84
2023/06/10 02:16:00;;;;;;;54.65;29.83;;;;;;;19.40;66.40;100092.03;5052321;28;20075;-84
2023/06/10 02:18:27;;;;;;;52.70;28.38;;;;;;;19.57;66.86;100119.88;5048505;28;20386;-84
2023/06/10 02:20:54;;;;;;;63.83;29.70;;;;;;;19.30;67.00;100107.84;5049947;28;20158;-82
2023/06/10 02:23:19;;;;;;;53.53;28.33;;;;;;;19.40;67.23;100121.19;5050450;28;20032;-82
2023/06/10 02:25:45;;;;;;;51.25;26.58;;;;;;;19.30;67.43;100107.84;5055217;28;20033;-82
2023/06/10 02:28:10;;;;;;;70.35;33.65;;;;;;;19.43;67.28;100127.09;5064016;28;20029;-84
2023/06/10 02:30:39;;;;;;;52.60;29.92;;;;;;;19.36;66.86;100112.50;5051376;28;20437;-84
2023/06/10 02:33:05;;;;;;;60.38;33.53;;;;;;;19.45;67.05;100122.28;5054126;28;20029;-84
2023/06/10 02:35:30;;;;;;;62.33;31.17;;;;;;;19.42;67.38;100128.13;5054453;28;20432;-85
2023/06/10 02:37:55;;;;;;;55.78;31.52;;;;;;;19.42;67.47;100121.81;5054401;28;20033;-83
2023/06/10 02:40:21;;;;;;;86.97;32.83;;;;;;;19.39;67.28;100123.06;5053668;28;20114;-84
2023/06/10 02:42:46;;;;;;;41.50;28.73;;;;;;;19.36;67.42;100111.66;5052150;28;20025;-84
2023/06/10 02:45:12;;;;;;;63.33;27.02;;;;;;;19.31;67.16;100108.69;5052545;28;20029;-84
2023/06/10 02:47:38;;;;;;;55.38;24.98;;;;;;;19.31;66.53;100106.81;5053289;28;20112;-84
2023/06/10 02:50:04;;;;;;;50.60;25.25;;;;;;;19.25;66.70;100099.41;5062023;28;20924;-85
2023/06/10 02:52:31;;;;;;;43.58;23.15;;;;;;;19.31;65.96;100120.44;5064495;28;20029;-81
2023/06/10 02:54:56;;;;;;;27.33;14.35;;;;;;;19.08;64.57;100122.47;5053522;28;20025;-81
2023/06/10 02:57:22;;;;;;;35.63;17.20;;;;;;;18.92;63.40;100125.44;5054125;28;20039;-85
2023/06/10 02:59:47;;;;;;;31.15;16.98;;;;;;;18.89;64.55;100123.94;5053890;28;20036;-85
2023/06/10 03:02:13;;;;;;;37.05;20.08;;;;;;;18.91;65.21;100118.28;5056115;28;20025;-84
2023/06/10 03:04:38;;;;;;;54.22;22.90;;;;;;;18.87;66.05;100117.81;5055389;28;20120;-82
2023/06/10 03:07:07;;;;;;;58.15;26.10;;;;;;;19.00;66.40;100133.50;5060739;28;20083;-83
2023/06/10 03:09:32;;;;;;;78.82;29.00;;;;;;;19.06;66.86;100137.31;5065753;28;20021;-81
2023/06/10 03:11:58;;;;;;;61.00;25.85;;;;;;;19.08;66.82;100135.28;5058621;28;20056;-83
2023/06/10 03:14:25;;;;;;;58.45;30.85;;;;;;;19.12;66.73;100140.13;5054397;28;20412;-84
2023/06/10 03:16:50;;;;;;;69.25;32.60;;;;;;;19.08;66.93;100108.84;5057163;28;20072;-83
2023/06/10 03:19:16;;;;;;;78.88;36.28;;;;;;;19.13;67.20;100111.84;5065576;28;20029;-82
2023/06/10 03:21:44;;;;;;;72.85;36.95;;;;;;;19.28;67.16;100122.72;5060105;28;20123;-82
2023/06/10 03:24:10;;;;;;;65.88;38.83;;;;;;;19.17;67.23;100091.34;5053551;28;20083;-83
2023/06/10 03:26:36;;;;;;;81.88;43.00;;;;;;;19.36;67.11;100128.88;5054210;28;20495;-83
2023/06/10 03:29:01;;;;;;;73.85;40.20;;;;;;;19.23;67.07;100106.94;5053589;28;20076;-83
2023/06/10 03:31:27;;;;;;;82.85;39.60;;;;;;;19.38;67.15;100124.09;5053153;28;20039;-84
2023/06/10 03:33:52;;;;;;;70.40;37.90;;;;;;;19.31;66.86;100114.13;5052906;28;20142;-83
2023/06/10 03:36:18;;;;;;;68.32;33.65;;;;;;;19.25;67.06;100132.13;5052483;28;20025;-84
2023/06/10 03:38:43;;;;;;;68.38;32.55;;;;;;;19.28;67.13;100131.75;5052461;28;20037;-83
2023/06/10 03:41:08;;;;;;;71.03;34.33;;;;;;;19.38;67.02;100126.81;5051300;28;20116;-82
2023/06/10 03:43:34;;;;;;;63.83;31.08;;;;;;;19.39;66.64;100123.06;5051617;28;20386;-82
2023/06/10 03:45:59;;;;;;;53.58;31.75;;;;;;;19.41;66.77;100126.47;5051972;28;20025;-82
2023/06/10 03:48:25;;;;;;;56.25;30.27;;;;;;;19.31;66.71;100112.25;5051506;28;20033;-83
2023/06/10 03:50:51;;;;;;;50.80;31.83;;;;;;;19.44;66.81;100128.81;5050887;28;20523;-83
2023/06/10 03:53:17;;;;;;;56.35;31.02;;;;;;;19.43;66.80;100118.06;5052224;28;20029;-82
2023/06/10 03:55:42;;;;;;;52.83;31.55;;;;;;;19.42;66.95;100119.94;5052450;28;20052;-84
2023/06/10 03:58:08;;;;;;;61.10;29.52;;;;;;;19.41;66.78;100111.97;5053354;28;20063;-82
2023/06/10 04:00:41;;;;;;;79.07;31.70;;;;;;;19.45;67.07;100116.00;5053328;28;20025;-85
2023/06/10 04:03:08;;;;;;;52.75;29.92;;;;;;;19.53;66.59;100108.53;5062643;28;20032;-89
2023/06/10 04:05:34;;;;;;;54.35;28.85;;;;;;;19.70;66.38;100116.44;5072431;28;20033;-87
2023/06/10 04:08:01;;;;;;;57.97;30.75;;;;;;;19.75;66.19;100112.09;5066548;28;20079;-87
2023/06/10 04:10:26;;;;;;;64.65;31.73;;;;;;;19.79;66.25;100115.25;5049009;28;20051;-87
2023/06/10 04:12:52;;;;;;;52.80;28.17;;;;;;;19.93;66.01;100112.47;5048834;28;20095;-86
2023/06/10 04:15:17;;;;;;;61.00;29.60;;;;;;;20.01;65.17;100108.72;5048774;28;20171;-86
2023/06/10 04:17:44;;;;;;;54.35;28.15;;;;;;;20.08;64.16;100115.09;5032389;28;20033;-86
2023/06/10 04:20:10;;;;;;;42.60;27.05;;;;;;;20.09;63.59;100103.13;5048743;28;20063;-86
2023/06/10 04:22:36;;;;;;;64.82;29.25;;;;;;;20.16;63.19;100098.56;5049014;28;20512;-87
2023/06/10 04:25:02;;;;;;;57.53;27.60;;;;;;;20.18;62.86;100091.03;5048640;28;20033;-85
2023/06/10 04:27:27;;;;;;;52.03;27.73;;;;;;;20.32;62.76;100101.00;5031935;28;20040;-85
2023/06/10 04:29:53;;;;;;;47.78;27.33;;;;;;;20.39;62.45;100093.72;5047802;28;20029;-81
2023/06/10 04:32:18;;;;;;;57.15;30.20;;;;;;;20.60;61.99;100111.91;5048550;28;20091;-85
2023/06/10 04:34:44;;;;;;;53.10;27.58;;;;;;;20.69;61.72;100121.63;5048154;28;20037;-85
2023/06/10 04:37:09;;;;;;;58.35;27.38;;;;;;;20.75;61.32;100114.50;5048088;28;20047;-85
2023/06/10 04:39:35;;;;;;;49.30;26.13;;;;;;;20.79;60.75;100110.31;5050157;28;20051;-87
2023/06/10 04:42:01;;;;;;;42.13;25.90;;;;;;;20.74;60.61;100101.84;5050972;28;20029;-85
2023/06/10 04:44:27;;;;;;;46.45;26.63;;;;;;;20.90;60.89;100112.44;5050421;28;20033;-86
2023/06/10 04:46:52;;;;;;;64.97;25.73;;;;;;;20.97;60.46;100113.34;5050280;28;20028;-86
2023/06/10 04:49:18;;;;;;;48.28;25.67;;;;;;;20.94;60.42;100091.88;5051668;28;20032;-84
2023/06/10 04:51:43;;;;;;;54.75;24.35;;;;;;;21.14;60.20;100103.75;5053296;28;20036;-84
2023/06/10 04:54:09;;;;;;;52.80;27.63;;;;;;;21.24;59.97;100104.19;5055068;28;20135;-83
2023/06/10 04:56:34;;;;;;;58.85;28.48;;;;;;;21.38;59.79;100110.53;5057870;28;20024;-84
2023/06/10 04:59:00;;;;;;;53.42;28.67;;;;;;;21.55;59.58;100111.84;5053561;28;20036;-86
2023/06/10 05:01:26;;;;;;;58.88;33.70;;;;;;;21.60;59.65;100109.31;5070084;28;20040;-85
2023/06/10 05:03:51;;;;;;;59.67;33.92;;;;;;;21.77;59.22;100123.44;5071008;28;20053;-84
2023/06/10 05:06:17;;;;;;;68.22;36.58;;;;;;;21.83;58.66;100117.97;5051377;28;20028;-85
2023/06/10 05:08:42;;;;;;;76.13;37.78;;;;;;;21.89;59.14;100119.06;5050493;28;20075;-85
2023/06/10 05:11:08;;;;;;;70.75;37.25;;;;;;;21.91;59.01;100106.00;5049979;28;20031;-86
2023/06/10 05:13:33;;;;;;;75.75;36.55;;;;;;;22.09;58.76;100118.00;5051005;28;20535;-86
2023/06/10 05:15:59;;;;;;;68.47;36.60;;;;;;;22.17;58.40;100105.97;5051666;28;20049;-85
2023/06/10 05:18:24;;;;;;;74.25;35.20;;;;;;;22.37;58.65;100116.91;5058308;28;20021;-83
2023/06/10 05:20:50;;;;;;;68.00;32.88;;;;;;;22.39;58.02;100099.19;5057101;28;20028;-80
2023/06/10 05:23:15;;;;;;;58.10;32.63;;;;;;;22.48;57.90;100097.91;5050528;28;20034;-85
2023/06/10 05:25:41;;;;;;;57.25;30.23;;;;;;;22.70;57.59;100115.81;5049061;28;20037;-83
2023/06/10 05:28:09;;;;;;;54.70;27.25;;;;;;;22.84;57.56;100116.63;5049756;28;20029;-82
2023/06/10 05:30:35;;;;;;;47.85;29.35;;;;;;;22.91;56.95;100102.84;5050185;28;20112;-83
2023/06/10 05:33:04;;;;;;;59.58;30.92;;;;;;;23.12;56.69;100110.78;5054731;28;20041;-83
2023/06/10 05:35:29;;;;;;;49.13;29.70;;;;;;;23.15;56.50;100088.38;5049098;28;20094;-85
2023/06/10 05:37:55;;;;;;;55.47;27.58;;;;;;;23.30;56.14;100080.72;5050399;28;20033;-81
2023/06/10 05:40:20;;;;;;;59.20;27.33;;;;;;;23.64;55.65;100109.66;5049245;28;20037;-88
2023/06/10 05:42:46;;;;;;;86.03;34.17;;;;;;;23.76;54.75;100089.50;5047981;28;20485;-85
2023/06/10 05:45:14;;;;;;;49.50;20.38;;;;;;;23.90;53.75;100081.16;5052638;28;20025;-83
2023/06/10 05:47:40;;;;;;;35.20;18.60;;;;;;;24.15;53.17;100095.75;5049514;28;20108;-82
2023/06/10 05:50:10;;;;;;;55.08;23.20;;;;;;;24.31;52.70;100086.94;5049116;28;20115;-79
2023/06/10 05:52:36;;;;;;;46.67;18.38;;;;;;;24.54;52.22;100089.84;5048766;28;20029;-80
2023/06/10 05:55:05;;;;;;;41.92;15.75;;;;;;;24.63;51.46;100060.97;5046620;28;20382;-80
2023/06/10 05:57:30;;;;;;;41.60;13.60;;;;;;;24.94;50.80;100089.41;5063242;28;20020;-83
2023/06/10 05:59:56;;;;;;;23.15;12.85;;;;;;;24.85;50.09;100061.38;5069972;28;20033;-85
2023/06/10 06:02:21;;;;;;;36.63;11.52;;;;;;;25.11;49.90;100085.78;5064614;28;20897;-85
2023/06/10 06:04:47;;;;;;;25.48;12.32;;;;;;;25.26;49.57;100077.09;5067511;28;20035;-83
2023/06/10 06:07:12;;;;;;;39.50;11.65;;;;;;;25.47;49.02;100090.38;5068540;28;20028;-81
2023/06/10 06:09:38;;;;;;;27.95;12.10;;;;;;;25.59;48.95;100088.53;5051346;28;20080;-79
2023/06/10 06:12:04;;;;;;;31.42;11.63;;;;;;;25.72;49.44;100082.78;5047601;28;20038;-82
2023/06/10 06:14:32;;;;;;;36.88;12.23;;;;;;;25.82;48.80;100083.06;5048376;28;20029;-79
2023/06/10 06:16:57;;;;;;;32.30;10.40;;;;;;;25.78;48.27;100076.31;5047611;28;20037;-80
2023/06/10 06:19:23;;;;;;;37.85;10.73;;;;;;;25.83;48.56;100075.63;5048011;28;20569;-80
2023/06/10 06:21:48;;;;;;;40.03;11.02;;;;;;;25.96;48.79;100072.66;5047116;28;20048;-82
2023/06/10 06:24:15;;;;;;;27.15;7.95;;;;;;;26.07;48.05;100059.94;5048054;28;20037;-82
2023/06/10 06:26:40;;;;;;;14.95;5.53;;;;;;;26.29;45.26;100059.16;5048544;28;20135;-83
2023/06/10 06:29:06;;;;;;;29.83;10.30;;;;;;;26.43;46.01;100063.31;5047993;28;20117;-84
2023/06/10 06:31:31;;;;;;;24.63;9.70;;;;;;;26.57;46.68;100057.56;5046758;28;20028;-79
2023/06/10 06:33:57;;;;;;;39.30;8.25;;;;;;;26.69;44.99;100064.72;5047792;28;20037;-79
2023/06/10 06:36:22;;;;;;;11.07;3.60;;;;;;;26.86;42.24;100059.31;5046824;28;20098;-79
2023/06/10 06:38:48;;;;;;;30.00;5.15;;;;;;;26.97;41.02;100050.16;5047488;28;20044;-92
2023/06/10 06:41:13;;;;;;;35.25;8.75;;;;;;;27.14;43.50;100058.47;5047609;28;20033;-81
2023/06/10 06:43:39;;;;;;;17.63;5.20;;;;;;;27.11;41.65;100058.97;5048514;28;20083;-82
2023/06/10 06:46:05;;;;;;;11.20;4.20;;;;;;;27.03;40.67;100055.50;5048123;28;20033;-81
2023/06/10 06:48:30;;;;;;;13.65;3.05;;;;;;;26.98;40.33;100055.41;5053009;28;20025;-84
2023/06/10 06:50:57;;;;;;;9.00;3.58;;;;;;;26.88;40.27;100054.41;5049749;28;20040;-83
2023/06/10 06:53:23;;;;;;;13.45;3.58;;;;;;;26.78;39.97;100049.47;5058415;28;20044;-83
2023/06/10 06:55:48;;;;;;;10.27;3.55;;;;;;;26.79;39.62;100056.66;5064523;28;20021;-81
2023/06/10 06:58:14;;;;;;;15.60;3.83;;;;;;;26.86;40.08;100057.38;5056509;28;20043;-82
2023/06/10 07:00:39;;;;;;;11.90;3.13;;;;;;;26.88;39.60;100049.69;5047563;28;20029;-79
2023/06/10 07:03:05;;;;;;;10.65;2.92;;;;;;;26.80;39.51;100040.97;5048565;28;20378;-87
2023/06/10 07:05:30;;;;;;;10.02;2.97;;;;;;;26.88;39.92;100038.66;5048439;28;20085;-85
2023/06/10 07:07:56;;;;;;;16.77;3.60;;;;;;;27.13;39.42;100046.59;5047070;28;20040;-81
2023/06/10 07:10:25;;;;;;;23.52;6.35;;;;;;;27.31;39.14;100042.78;5047303;28;20118;-87
2023/06/10 07:12:51;;;;;;;6.53;3.03;;;;;;;27.43;38.50;100030.63;5047682;28;20562;-80
2023/06/10 07:15:17;;;;;;;13.38;4.38;;;;;;;27.62;37.82;100039.50;5048357;28;20045;-79
2023/06/10 07:17:43;;;;;;;25.90;5.80;;;;;;;27.78;37.47;100041.47;5052194;28;20457;-79
2023/06/10 07:20:09;;;;;;;31.77;7.05;;;;;;;27.94;37.58;100032.31;5053597;28;20569;-78
2023/06/10 07:22:35;;;;;;;18.05;5.18;;;;;;;28.06;36.88;100023.97;5057236;28;20025;-80
2023/06/10 07:25:01;;;;;;;15.43;5.00;;;;;;;28.26;36.54;100038.06;5084565;28;20032;-82
2023/06/10 07:27:26;;;;;;;24.10;5.38;;;;;;;28.45;36.34;100044.16;5055429;28;20044;-85
2023/06/10 07:29:51;;;;;;;10.60;4.03;;;;;;;28.42;35.53;100020.63;5059384;28;20032;-82
2023/06/10 07:32:17;;;;;;;8.63;3.17;;;;;;;28.37;35.76;100039.06;5072521;28;20082;-86
2023/06/10 07:34:43;;;;;;;10.52;3.63;;;;;;;28.35;36.12;100019.94;5061119;28;20512;-85
2023/06/10 07:37:09;;;;;;;22.50;5.50;;;;;;;28.41;36.66;100015.31;5052456;28;20104;-84
2023/06/10 07:39:34;;;;;;;13.45;4.20;;;;;;;28.47;36.37;100028.97;5052415;28;20116;-81
2023/06/10 07:42:00;;;;;;;10.15;3.55;;;;;;;28.56;35.63;100041.28;5052750;28;20021;-80
2023/06/10 07:44:25;;;;;;;14.73;3.67;;;;;;;28.45;35.66;100038.63;5054247;28;20400;-83
2023/06/10 07:46:51;;;;;;;19.25;3.45;;;;;;;28.28;35.51;100035.91;5071811;28;20083;-82
2023/06/10 07:49:16;;;;;;;9.32;3.00;;;;;;;28.33;35.92;100046.19;5059653;28;20025;-80
2023/06/10 07:51:42;;;;;;;8.40;4.88;;;;;;;28.32;36.96;100050.03;5062340;28;20029;-77
2023/06/10 07:54:07;;;;;;;16.77;4.68;;;;;;;28.32;37.78;100053.66;5068983;28;20017;-86
2023/06/10 07:56:33;;;;;;;17.35;4.55;;;;;;;28.30;37.97;100032.88;5072227;28;20044;-89
2023/06/10 07:58:58;;;;;;;34.88;5.63;;;;;;;28.37;38.16;100037.16;5084906;28;20075;-86
2023/06/10 08:01:24;;;;;;;11.23;4.50;;;;;;;28.50;38.05;100030.41;5057091;28;20408;-90
2023/06/10 08:03:50;;;;;;;13.63;3.92;;;;;;;28.62;37.61;100031.13;5063446;28;20087;-87
2023/06/10 08:06:17;;;;;;;9.10;3.90;;;;;;;28.70;37.42;100029.84;5060890;28;20020;-87
2023/06/10 08:08:43;;;;;;;22.42;4.60;;;;;;;28.99;37.20;100028.56;5073624;28;20077;-87
2023/06/10 08:11:10;;;;;;;13.30;3.72;;;;;;;29.24;37.26;100030.78;5058662;28;20090;-86
2023/06/10 08:13:36;;;;;;;16.27;4.07;;;;;;;29.27;36.80;100019.19;5051296;28;20052;-88
2023/06/10 08:16:01;;;;;;;14.55;4.15;;;;;;;29.44;36.22;100003.28;5050221;28;20063;-89
2023/06/10 08:18:27;;;;;;;14.02;3.92;;;;;;;29.76;35.74;100022.69;5050473;28;20508;-88
2023/06/10 08:20:52;;;;;;;22.92;4.72;;;;;;;29.94;35.33;100013.97;5051805;28;20090;-88
2023/06/10 08:23:19;;;;;;;13.95;4.57;;;;;;;30.01;35.16;100011.81;5051383;28;20021;-83
2023/06/10 08:25:45;;;;;;;24.75;6.38;;;;;;;29.95;38.87;99999.84;5049066;28;20029;-89
2023/06/10 08:28:10;;;;;;;32.75;5.43;;;;;;;29.89;39.43;100012.00;5049431;28;20377;-80
2023/06/10 08:30:35;;;;;;;36.13;5.30;;;;;;;29.84;39.27;100014.75;5050664;28;20040;-83
2023/06/10 08:33:01;;;;;;;20.38;4.78;;;;;;;29.30;40.12;100007.56;5050318;28;20523;-85
2023/06/10 08:35:26;;;;;;;20.20;5.28;;;;;;;29.16;39.89;100019.06;5049409;28;20021;-84
2023/06/10 08:37:52;;;;;;;30.58;5.03;;;;;;;28.95;39.95;100005.25;5051779;28;20047;-84
2023/06/10 08:40:17;;;;;;;27.20;6.85;;;;;;;28.60;41.52;100025.00;5053767;28;20041;-86
2023/06/10 08:42:48;;;;;;;26.58;5.78;;;;;;;28.73;41.19;100023.81;5054303;28;20025;-85
2023/06/10 08:45:18;;;;;;;13.98;4.40;;;;;;;28.88;39.89;100022.06;5061857;28;20036;-81
2023/06/10 08:47:46;;;;;;;32.45;8.07;;;;;;;28.74;41.96;100020.78;5063987;28;20024;-81
2023/06/10 08:50:12;;;;;;;26.90;5.15;;;;;;;28.45;43.42;100019.25;5069482;28;20078;-86
2023/06/10 08:52:42;;;;;;;14.65;5.13;;;;;;;28.29;44.40;100015.44;5053182;28;20037;-84
2023/06/10 08:55:19;;;;;;;11.60;5.15;;;;;;;28.43;44.16;100024.22;5052434;28;20033;-83
2023/06/10 08:57:45;;;;;;;14.68;5.03;;;;;;;28.43;44.16;100015.91;5052189;28;20055;-85
2023/06/10 09:00:16;;;;;;;8.07;4.03;;;;;;;28.54;43.89;100014.94;5050263;28;20108;-86
2023/06/10 09:02:43;;;;;;;;;;;;;;;28.57;43.59;100015.28;5049629;28;20052;-84
2023/06/10 09:05:09;;;;;;;23.40;5.55;;;;;;;28.37;44.07;100014.19;5049791;28;19948;-85
2023/06/10 09:07:36;;;;;;;7.22;4.75;;;;;;;28.24;42.82;100007.09;5048876;28;20036;-83
2023/06/10 09:10:03;;;;;;;9.05;4.43;;;;;;;28.35;43.36;100002.50;5046287;28;20043;-84
2023/06/10 09:12:29;;;;;;;13.75;4.45;;;;;;;28.36;42.33;100007.81;5049653;28;20031;-86
2023/06/10 09:14:55;;;;;;;9.55;3.80;;;;;;;28.19;42.09;99995.97;5049164;28;20049;-84
2023/06/10 09:17:21;;;;;;;8.60;3.90;;;;;;;28.33;41.45;100005.56;5048463;28;20027;-80
2023/06/10 09:19:47;;;;;;;18.83;5.70;;;;;;;27.89;41.33;99989.91;5048753;28;20060;-84
2023/06/10 09:22:13;;;;;;;13.68;4.72;;;;;;;27.96;41.32;99980.38;5050533;28;20451;-83
2023/06/10 09:24:38;;;;;;;14.65;4.43;;;;;;;27.92;40.74;99981.97;5049818;28;20071;-83
2023/06/10 09:27:06;;;;;;;36.75;4.97;;;;;;;28.01;40.87;99974.91;5051346;28;20484;-88
2023/06/10 09:29:45;;;;;;;16.70;3.95;;;;;;;27.95;40.67;99988.94;5039210;28;20021;-95
2023/06/10 09:32:10;;;;;;;13.60;4.25;;;;;;;28.13;41.13;100001.66;5054585;28;20028;-95
2023/06/10 09:34:36;;;;;;;12.30;3.33;;;;;;;28.10;40.50;99967.88;5053580;28;20096;-91
2023/06/10 09:37:02;;;;;;;14.98;5.55;;;;;;;28.30;39.97;99985.84;5054659;28;20029;-91
2023/06/10 09:39:27;;;;;;;19.30;5.03;;;;;;;27.93;40.25;99958.78;5072160;28;20025;-89
2023/06/10 09:41:53;;;;;;;17.98;4.70;;;;;;;28.05;40.42;99975.28;5058453;28;20032;-90
2023/06/10 09:44:21;;;;;;;22.17;5.03;;;;;;;28.10;41.02;99970.66;5074121;28;20029;-90
2023/06/10 09:46:49;;;;;;;27.45;5.13;;;;;;;27.94;40.62;99965.97;5072223;28;20063;-90
2023/06/10 09:49:18;;;;;;;18.95;4.20;;;;;;;27.95;41.51;99988.94;5055833;28;20491;-85
2023/06/10 09:51:54;;;;;;;15.88;4.20;;;;;;;27.83;42.28;99974.34;5061751;28;20021;-84
2023/06/10 09:54:21;;;;;;;27.38;4.38;;;;;;;27.72;43.35;99967.84;5054479;28;20479;-81
2023/06/10 09:56:51;;;;;;;362.98;30.30;;;;;;;27.95;42.53;99967.63;5050226;28;20089;-83
2023/06/10 09:59:37;;;;;;;24.23;5.32;;;;;;;28.24;42.91;99970.28;5050331;28;20120;-80
2023/06/10 10:02:04;;;;;;;45.22;6.40;;;;;;;28.37;41.29;99953.31;5049661;28;20476;-88
2023/06/10 10:04:29;;;;;;;16.67;5.05;;;;;;;28.68;41.23;99976.69;5056417;28;20092;-85
2023/06/10 10:06:55;;;;;;;9.68;5.28;;;;;;;29.08;39.60;99977.16;5047680;28;20108;-82
2023/06/10 10:09:21;;;;;;;14.30;3.22;;;;;;;29.05;38.92;99967.41;5047892;28;20032;-80
2023/06/10 10:11:48;;;;;;;20.20;5.65;;;;;;;29.57;37.65;99964.06;5046891;28;20021;-78
2023/06/10 10:14:16;;;;;;;19.55;5.28;;;;;;;29.81;37.48;99970.91;5047465;28;20043;-80
2023/06/10 10:16:42;;;;;;;23.27;4.63;;;;;;;30.09;37.04;99962.22;5049159;28;20071;-79
2023/06/10 10:19:15;;;;;;;13.63;3.38;;;;;;;30.31;36.80;99967.59;5047475;28;20499;-82
2023/06/10 10:21:57;;;;;;;22.05;4.38;;;;;;;30.49;33.00;99960.78;5047334;28;20033;-79
2023/06/10 10:24:26;;;;;;;;;;;;;;;30.63;31.06;99956.41;5049049;28;20021;-80
2023/06/10 10:26:58;;;;;;;9.90;4.30;;;;;;;30.68;33.59;99940.59;5046842;28;19916;-81
2023/06/10 10:29:23;;;;;;;;;;;;;;;30.68;33.62;99959.19;5048914;28;20032;-80
2023/06/10 10:31:53;;;;;;;25.47;4.73;;;;;;;30.85;32.79;99942.31;5048711;28;19916;-84
2023/06/10 10:34:24;;;;;;;13.80;4.28;;;;;;;30.94;31.78;99932.31;5050420;28;20108;-87
2023/06/10 10:36:50;;;;;;;11.40;4.43;;;;;;;31.16;30.91;99941.28;5050403;28;20037;-81
2023/06/10 10:39:17;;;;;;;15.77;4.05;;;;;;;31.22;29.45;99921.53;5053205;28;20029;-81
2023/06/10 10:41:43;;;;;;;12.60;4.45;;;;;;;31.37;30.02;99933.78;5055809;28;20028;-81
2023/06/10 10:44:10;;;;;;;12.88;4.35;;;;;;;31.46;29.63;99915.44;5051330;28;20057;-85
2023/06/10 10:46:43;;;;;;;15.48;4.05;;;;;;;31.66;28.82;99938.53;5045735;28;20062;-82
2023/06/10 10:49:11;;;;;;;5.82;3.47;;;;;;;31.63;28.74;99929.91;5047683;28;20453;-81
2023/06/10 10:51:37;;;;;;;8.18;3.20;;;;;;;31.72;28.09;99939.34;5048775;28;20039;-83
2023/06/10 10:54:15;;;;;;;16.40;4.35;;;;;;;31.80;28.74;99936.03;5050407;28;20120;-86
2023/06/10 10:57:10;;;;;;;16.42;4.70;;;;;;;31.84;29.07;99939.88;5050937;28;20365;-84
2023/06/10 10:59:56;;;;;;;13.70;4.45;;;;;;;32.16;29.67;99940.41;5051144;28;20025;-85
2023/06/10 11:02:43;;;;;;;13.60;3.55;;;;;;;32.18;28.66;99932.59;5050473;28;20094;-81
2023/06/10 11:05:11;;;;;;;14.88;5.13;;;;;;;32.19;28.85;99919.53;5031028;28;20060;-87
2023/06/10 11:07:37;;;;;;;19.90;4.57;;;;;;;32.17;29.20;99928.13;5031006;28;20030;-85
2023/06/10 11:10:02;;;;;;;32.72;6.47;;;;;;;31.90;30.49;99937.91;5043288;28;20025;-84
2023/06/10 11:12:46;;;;;;;18.20;5.05;;;;;;;31.85;30.22;99933.22;5050655;28;20035;-83
2023/06/10 11:15:12;;;;;;;13.93;4.38;;;;;;;31.99;29.94;99933.44;5050177;28;20049;-82